Time;durP1;ratioP1;P1;durP2;ratioP2;P2;SDS_P1;SDS_P2;PMS_P1;PMS_P2;Temp;Humidity;BMP_temperature;BMP_pressure;BME280_temperature;BME280_humidity;BME280_pressure;Samples;Min_cycle;Max_cycle;Signal;HPM_P1;HPM_P2
2024/02/09 00:00:10;;;;;;;0.30;0.20;;;;;;;12.38;100.00;97902.97;5071181;28;21076;-52
2024/02/09 00:02:41;;;;;;;0.30;0.20;;;;;;;12.41;100.00;97892.06;5071341;28;20459;-52
2024/02/09 00:05:15;;;;;;;0.30;0.20;;;;;;;12.33;100.00;97891.78;5071094;28;20535;-52
2024/02/09 00:07:45;;;;;;;0.30;0.20;;;;;;;12.36;100.00;97898.72;5071391;28;20424;-52
2024/02/09 00:10:13;;;;;;;0.30;0.20;;;;;;;12.47;100.00;97888.06;5071116;28;20417;-51
2024/02/09 00:12:41;;;;;;;0.30;0.20;;;;;;;12.39;100.00;97898.47;5071494;28;20512;-52
2024/02/09 00:15:08;;;;;;;0.30;0.20;;;;;;;12.46;100.00;97889.03;5071182;28;20897;-52
2024/02/09 00:17:36;;;;;;;0.30;0.20;;;;;;;12.48;100.00;97884.47;5071397;28;20486;-51
2024/02/09 00:20:07;;;;;;;0.30;0.20;;;;;;;12.44;100.00;97881.16;5070860;28;20478;-52
2024/02/09 00:22:35;;;;;;;0.30;0.20;;;;;;;12.68;100.00;97886.47;5071147;28;20416;-52
2024/02/09 00:25:08;;;;;;;0.30;0.20;;;;;;;12.65;100.00;97876.06;5068028;28;20493;-51
2024/02/09 00:27:39;;;;;;;0.30;0.20;;;;;;;12.68;100.00;97875.81;5071239;28;20449;-52
2024/02/09 00:30:07;;;;;;;0.30;0.20;;;;;;;12.51;100.00;97868.25;5071286;28;20446;-52
2024/02/09 00:32:35;;;;;;;0.30;0.20;;;;;;;12.67;100.00;97865.28;5071025;28;20456;-52
2024/02/09 00:35:03;;;;;;;0.30;0.20;;;;;;;12.50;100.00;97869.22;5070784;28;20470;-52
2024/02/09 00:37:30;;;;;;;0.30;0.20;;;;;;;12.54;100.00;97870.69;5067702;28;20967;-52
2024/02/09 00:39:56;;;;;;;0.30;0.20;;;;;;;12.64;100.00;97860.19;5071045;28;20468;-51
2024/02/09 00:42:23;;;;;;;0.30;0.20;;;;;;;12.48;100.00;97857.84;5040443;28;20831;-51
2024/02/09 00:44:50;;;;;;;0.30;0.20;;;;;;;12.54;100.00;97864.50;5071063;28;20440;-52
2024/02/09 00:47:16;;;;;;;0.30;0.20;;;;;;;12.53;100.00;97850.31;5070893;28;20431;-51
2024/02/09 00:49:43;;;;;;;0.30;0.20;;;;;;;12.63;99.67;97858.47;5071064;28;20446;-52
2024/02/09 00:52:11;;;;;;;0.30;0.20;;;;;;;12.65;99.85;97853.88;5074363;28;20886;-52
2024/02/09 00:54:41;;;;;;;0.30;0.20;;;;;;;12.54;99.90;97840.53;5068421;28;21011;-52
2024/02/09 00:57:08;;;;;;;0.30;0.20;;;;;;;12.53;99.89;97846.81;5071621;28;20444;-52
2024/02/09 00:59:38;;;;;;;0.30;0.20;;;;;;;12.71;99.67;97851.59;5074249;28;20485;-51
2024/02/09 01:02:06;;;;;;;0.30;0.20;;;;;;;12.50;99.42;97841.72;5074260;28;20428;-52
2024/02/09 01:04:37;;;;;;;0.30;0.20;;;;;;;12.54;99.77;97848.50;5074425;28;20473;-51
2024/02/09 01:07:06;;;;;;;0.77;0.77;;;;;;;12.53;98.81;97839.66;5061192;28;20448;-52
2024/02/09 01:09:33;;;;;;;0.30;0.20;;;;;;;12.57;98.42;97850.94;5074393;28;20477;-52
2024/02/09 02:45:12;;;;;;;0.30;0.20;;;;;;;11.84;100.00;97774.75;5072341;28;20448;-52
2024/02/09 02:47:40;;;;;;;0.30;0.20;;;;;;;11.95;100.00;97765.97;5072256;28;20523;-52
2024/02/09 03:06:37;;;;;;;0.30;0.20;;;;;;;11.78;100.00;97738.75;5072009;28;20453;-50
2024/02/09 03:09:24;;;;;;;0.30;0.20;;;;;;;11.85;100.00;97732.06;5061022;28;20884;-50
2024/02/09 03:11:50;;;;;;;0.30;0.20;;;;;;;11.88;100.00;97730.97;5070131;28;20822;-50
2024/02/09 03:14:17;;;;;;;0.30;0.20;;;;;;;11.89;100.00;97737.97;5071950;28;20507;-50
2024/02/09 03:16:45;;;;;;;0.30;0.20;;;;;;;12.03;100.00;97735.13;5072044;28;20452;-50
2024/02/09 03:19:14;;;;;;;0.30;0.20;;;;;;;11.92;100.00;97729.75;5072109;28;20457;-51
2024/02/09 03:21:41;;;;;;;0.30;0.20;;;;;;;11.94;100.00;97727.84;5071610;28;20485;-50
2024/02/09 03:24:07;;;;;;;0.30;0.20;;;;;;;11.92;100.00;97739.56;5070137;28;20560;-50
2024/02/09 03:26:34;;;;;;;0.30;0.20;;;;;;;11.89;100.00;97722.00;5071183;28;20536;-50
2024/02/09 03:29:00;;;;;;;0.30;0.20;;;;;;;11.92;100.00;97723.59;5072364;28;20420;-51
2024/02/09 03:31:30;;;;;;;0.30;0.20;;;;;;;11.99;100.00;97736.34;5072084;28;20477;-51
2024/02/09 03:33:56;;;;;;;0.30;0.20;;;;;;;11.97;100.00;97734.75;5058860;28;20902;-51
2024/02/09 03:36:24;;;;;;;0.30;0.20;;;;;;;12.08;100.00;97740.97;5071476;28;20446;-51
2024/02/09 03:38:50;;;;;;;0.30;0.20;;;;;;;12.02;100.00;97733.44;5068541;28;20932;-51
2024/02/09 03:41:16;;;;;;;0.30;0.20;;;;;;;11.87;100.00;97723.94;5067956;28;20543;-50
2024/02/09 03:43:43;;;;;;;0.30;0.20;;;;;;;11.95;100.00;97723.38;5071537;28;20497;-50
2024/02/09 03:46:10;;;;;;;0.30;0.20;;;;;;;11.81;100.00;97717.28;5072008;28;20972;-51
2024/02/09 03:48:37;;;;;;;0.30;0.20;;;;;;;11.94;100.00;97716.38;5071475;28;20428;-51
2024/02/09 03:51:04;;;;;;;0.30;0.20;;;;;;;11.96;100.00;97715.28;5071372;28;20475;-51
2024/02/09 03:53:33;;;;;;;0.30;0.20;;;;;;;12.00;100.00;97727.38;5071601;28;20507;-50
2024/02/09 03:56:00;;;;;;;0.30;0.20;;;;;;;11.98;100.00;97720.47;5061939;28;20452;-51
2024/02/09 03:58:27;;;;;;;0.30;0.20;;;;;;;12.20;100.00;97709.03;5071478;28;20427;-50
2024/02/09 04:00:53;;;;;;;0.30;0.20;;;;;;;12.04;100.00;97714.69;5071398;28;21054;-51
2024/02/09 04:03:19;;;;;;;0.30;0.20;;;;;;;11.93;100.00;97714.66;5071359;28;20437;-51
2024/02/09 04:05:46;;;;;;;0.30;0.20;;;;;;;11.94;100.00;97716.38;5071625;28;20473;-50
2024/02/09 04:08:13;;;;;;;0.30;0.20;;;;;;;12.09;100.00;97707.22;5071433;28;20434;-51
2024/02/09 04:10:40;;;;;;;0.30;0.20;;;;;;;12.19;100.00;97718.00;5071616;28;20515;-50
2024/02/09 04:13:12;;;;;;;0.30;0.20;;;;;;;12.32;100.00;97711.59;5071267;28;20788;-51
2024/02/09 04:15:39;;;;;;;0.30;0.20;;;;;;;12.18;100.00;97706.47;5071334;28;20496;-51
2024/02/09 04:18:06;;;;;;;0.30;0.20;;;;;;;12.27;100.00;97707.59;5068248;28;21311;-51
2024/02/09 04:20:33;;;;;;;0.30;0.20;;;;;;;12.22;100.00;97710.63;5061131;28;20470;-51
2024/02/09 04:23:00;;;;;;;0.30;0.20;;;;;;;12.04;100.00;97707.53;5071306;28;20478;-51
2024/02/09 04:25:27;;;;;;;0.30;0.20;;;;;;;11.97;100.00;97710.81;5070145;28;20967;-51
2024/02/09 04:27:54;;;;;;;0.30;0.20;;;;;;;12.18;100.00;97702.97;5071131;28;21001;-50
2024/02/09 04:30:21;;;;;;;0.30;0.20;;;;;;;11.98;100.00;97705.34;5066175;28;20477;-50
2024/02/09 04:32:48;;;;;;;0.30;0.20;;;;;;;12.00;100.00;97702.56;5074788;28;20428;-50
2024/02/09 04:35:15;;;;;;;0.30;0.20;;;;;;;11.94;100.00;97695.91;5074906;28;20500;-50
2024/02/09 04:37:42;;;;;;;0.30;0.20;;;;;;;11.90;100.00;97701.56;5071793;28;20438;-51
2024/02/09 04:40:09;;;;;;;0.30;0.20;;;;;;;12.04;100.00;97702.22;5073189;28;20449;-51
2024/02/09 04:42:35;;;;;;;0.30;0.20;;;;;;;12.13;100.00;97703.34;5059788;28;20556;-50
2024/02/09 04:45:02;;;;;;;0.30;0.20;;;;;;;12.13;100.00;97700.69;5074564;28;20526;-51
2024/02/09 04:47:28;;;;;;;0.30;0.20;;;;;;;11.98;100.00;97692.03;5074947;28;20456;-51
2024/02/09 04:49:55;;;;;;;0.30;0.20;;;;;;;12.01;100.00;97691.81;5062774;28;20844;-51
2024/02/09 04:52:25;;;;;;;0.30;0.20;;;;;;;12.06;100.00;97684.34;5067998;28;20453;-51
2024/02/09 04:54:52;;;;;;;0.30;0.20;;;;;;;12.01;100.00;97682.97;5059340;28;20475;-51
2024/02/09 04:57:18;;;;;;;0.30;0.20;;;;;;;12.12;100.00;97678.53;5073789;28;20425;-51
2024/02/09 04:59:44;;;;;;;0.30;0.20;;;;;;;11.98;100.00;97675.22;5074384;28;20456;-51
2024/02/09 05:02:11;;;;;;;0.30;0.20;;;;;;;11.99;100.00;97683.09;5074642;28;20464;-51
2024/02/09 05:04:38;;;;;;;0.30;0.20;;;;;;;11.92;100.00;97670.34;5074682;28;20448;-50
2024/02/09 05:07:05;;;;;;;0.30;0.20;;;;;;;12.06;100.00;97672.81;5074239;28;20944;-51
2024/02/09 05:09:32;;;;;;;0.30;0.20;;;;;;;11.97;100.00;97674.38;5074267;28;20992;-50
2024/02/09 05:11:58;;;;;;;0.30;0.20;;;;;;;12.03;100.00;97665.91;5074131;28;20549;-50
2024/02/09 05:14:25;;;;;;;0.40;0.40;;;;;;;12.10;100.00;97660.97;5074472;28;20521;-50
2024/02/09 05:16:52;;;;;;;0.30;0.20;;;;;;;12.05;100.00;97668.44;5074210;28;20450;-50
2024/02/09 05:19:18;;;;;;;0.30;0.20;;;;;;;11.96;100.00;97670.03;5074252;28;20474;-51
2024/02/09 05:21:45;;;;;;;0.30;0.20;;;;;;;11.98;100.00;97660.09;5047951;28;20514;-51
2024/02/09 05:24:12;;;;;;;0.30;0.20;;;;;;;11.93;100.00;97662.28;5062806;28;20969;-51
2024/02/09 05:26:39;;;;;;;0.83;0.83;;;;;;;12.12;100.00;97657.22;5073951;28;20450;-51
2024/02/09 05:29:05;;;;;;;0.30;0.20;;;;;;;12.04;100.00;97661.44;5073866;28;20939;-51
2024/02/09 05:31:32;;;;;;;0.30;0.20;;;;;;;12.08;100.00;97662.91;5074176;28;20569;-51
2024/02/09 05:33:58;;;;;;;0.30;0.20;;;;;;;12.22;100.00;97659.19;5073760;28;20885;-51
2024/02/09 05:36:27;;;;;;;0.30;0.20;;;;;;;12.16;100.00;97660.50;5073539;28;20430;-50
2024/02/09 05:38:57;;;;;;;0.30;0.20;;;;;;;12.15;100.00;97658.78;5070695;28;20461;-50
2024/02/09 05:41:23;;;;;;;0.30;0.20;;;;;;;12.17;100.00;97659.53;5061940;28;20487;-51
2024/02/09 05:43:52;;;;;;;0.30;0.20;;;;;;;12.28;100.00;97656.03;5068887;28;20427;-50
2024/02/09 05:46:18;;;;;;;0.30;0.20;;;;;;;12.30;100.00;97665.59;5073759;28;20515;-51
2024/02/09 05:48:47;;;;;;;0.30;0.20;;;;;;;12.34;100.00;97666.22;5073571;28;20450;-51
2024/02/09 05:51:18;;;;;;;0.30;0.20;;;;;;;12.41;100.00;97654.09;5073459;28;20420;-51
2024/02/09 05:53:48;;;;;;;0.30;0.20;;;;;;;12.41;100.00;97664.75;5072985;28;20450;-51
2024/02/09 05:56:20;;;;;;;0.30;0.20;;;;;;;12.38;100.00;97660.53;5064265;28;20495;-50
2024/02/09 05:58:57;;;;;;;0.30;0.20;;;;;;;12.36;100.00;97661.63;5073461;28;20449;-51
2024/02/09 06:01:31;;;;;;;0.30;0.20;;;;;;;12.49;100.00;97662.34;5073529;28;20481;-50
2024/02/09 06:03:57;;;;;;;0.30;0.20;;;;;;;12.43;100.00;97657.50;5073918;28;20512;-50
2024/02/09 06:06:24;;;;;;;0.30;0.20;;;;;;;12.34;100.00;97661.75;5072884;28;20470;-50
2024/02/09 06:08:50;;;;;;;0.30;0.20;;;;;;;12.31;100.00;97661.97;5073432;28;20454;-50
2024/02/09 06:11:17;;;;;;;0.30;0.20;;;;;;;12.52;100.00;97664.78;5073430;28;20444;-50
2024/02/09 06:13:45;;;;;;;0.30;0.20;;;;;;;12.41;100.00;97651.44;5073091;28;20424;-50
2024/02/09 06:16:12;;;;;;;0.30;0.20;;;;;;;12.52;100.00;97658.59;5072767;28;21006;-50
2024/02/09 06:18:39;;;;;;;0.30;0.20;;;;;;;12.31;100.00;97661.13;5073002;28;20484;-50
2024/02/09 06:21:06;;;;;;;0.30;0.20;;;;;;;12.32;100.00;97673.47;5059305;28;20464;-51
2024/02/09 06:23:34;;;;;;;0.30;0.20;;;;;;;12.44;100.00;97667.19;5065041;28;20432;-51
2024/02/09 06:26:01;;;;;;;0.30;0.20;;;;;;;12.46;100.00;97667.91;5054408;28;20498;-50
2024/02/09 06:28:28;;;;;;;0.30;0.20;;;;;;;12.38;100.00;97659.69;5072900;28;20471;-50
2024/02/09 06:30:55;;;;;;;0.30;0.20;;;;;;;12.48;100.00;97663.31;5072743;28;20477;-50
2024/02/09 06:33:22;;;;;;;0.30;0.20;;;;;;;12.56;100.00;97657.38;5072580;28;20580;-50
2024/02/09 06:35:48;;;;;;;0.30;0.20;;;;;;;12.55;100.00;97653.03;5072643;28;20440;-50
2024/02/09 06:38:17;;;;;;;0.30;0.20;;;;;;;12.47;100.00;97661.59;5056279;28;20547;-51
2024/02/09 06:40:45;;;;;;;0.30;0.20;;;;;;;12.50;100.00;97664.06;5061943;28;20417;-51
2024/02/09 06:43:18;;;;;;;0.30;0.20;;;;;;;12.48;100.00;97666.00;5062637;28;20810;-51
2024/02/09 06:45:45;;;;;;;0.30;0.20;;;;;;;12.55;100.00;97661.00;5072224;28;20952;-51
2024/02/09 06:48:11;;;;;;;0.30;0.20;;;;;;;12.60;100.00;97661.50;5054025;28;20454;-50
2024/02/09 06:50:38;;;;;;;0.30;0.20;;;;;;;12.70;100.00;97659.78;5072082;28;20987;-51
2024/02/09 06:53:05;;;;;;;0.30;0.20;;;;;;;12.66;100.00;97659.19;5072367;28;20450;-51
2024/02/09 06:55:33;;;;;;;0.30;0.20;;;;;;;12.68;100.00;97654.59;5063228;28;20539;-50
2024/02/09 06:58:01;;;;;;;0.30;0.20;;;;;;;12.70;100.00;97649.97;5072222;28;20864;-51
2024/02/09 07:00:27;;;;;;;0.30;0.20;;;;;;;12.60;100.00;97656.16;5072104;28;20950;-50
2024/02/09 07:02:55;;;;;;;0.40;0.40;;;;;;;12.67;100.00;97652.06;5072276;28;20482;-51
2024/02/09 07:05:22;;;;;;;0.30;0.20;;;;;;;12.65;100.00;97657.50;5072361;28;20477;-50
2024/02/09 07:07:50;;;;;;;0.30;0.20;;;;;;;12.63;100.00;97661.28;5072088;28;20476;-50
2024/02/09 07:10:18;;;;;;;0.30;0.20;;;;;;;12.46;100.00;97659.91;5054295;28;20420;-50
2024/02/09 07:12:44;;;;;;;0.30;0.20;;;;;;;12.63;100.00;97664.78;5072223;28;21012;-50
2024/02/09 07:15:16;;;;;;;0.30;0.20;;;;;;;12.72;100.00;97655.19;5071596;28;20471;-50
2024/02/09 07:17:43;;;;;;;0.30;0.20;;;;;;;12.88;100.00;97662.81;5071881;28;20420;-50
2024/02/09 07:20:12;;;;;;;0.30;0.20;;;;;;;12.73;100.00;97668.38;5039272;28;20512;-50
2024/02/09 07:22:39;;;;;;;0.30;0.20;;;;;;;12.73;100.00;97670.22;5065670;28;20524;-50
2024/02/09 07:25:06;;;;;;;0.30;0.20;;;;;;;12.77;100.00;97682.34;5069533;28;20485;-50
2024/02/09 07:27:33;;;;;;;0.30;0.20;;;;;;;12.75;100.00;97685.13;5071921;28;20467;-50
2024/02/09 07:29:59;;;;;;;0.30;0.20;;;;;;;12.70;100.00;97675.78;5071771;28;20514;-50
2024/02/09 07:32:26;;;;;;;0.30;0.20;;;;;;;12.71;100.00;97670.34;5057017;28;20853;-50
2024/02/09 07:34:52;;;;;;;0.30;0.20;;;;;;;12.80;100.00;97667.91;5059679;28;20448;-50
2024/02/09 07:37:22;;;;;;;0.30;0.20;;;;;;;12.85;100.00;97666.56;5067226;28;20471;-50
2024/02/09 07:39:48;;;;;;;0.30;0.20;;;;;;;12.75;100.00;97670.97;5059948;28;20481;-50
2024/02/09 07:42:17;;;;;;;0.30;0.20;;;;;;;12.84;100.00;97669.34;5054188;28;20643;-50
2024/02/09 07:44:44;;;;;;;0.30;0.20;;;;;;;12.89;100.00;97672.53;5071653;28;20501;-50
2024/02/09 07:47:10;;;;;;;0.30;0.20;;;;;;;13.07;99.84;97659.53;5071656;28;20507;-50
2024/02/09 07:49:37;;;;;;;0.30;0.20;;;;;;;13.04;99.32;97658.81;5071745;28;20512;-50
2024/02/09 07:52:04;;;;;;;0.30;0.20;;;;;;;13.02;99.83;97662.56;5071545;28;20450;-50
2024/02/09 07:54:31;;;;;;;0.30;0.20;;;;;;;12.87;99.53;97669.94;5066370;28;20517;-50
2024/02/09 07:56:58;;;;;;;0.30;0.20;;;;;;;13.03;99.76;97674.94;5067783;28;20467;-50
2024/02/09 07:59:25;;;;;;;0.30;0.20;;;;;;;13.11;98.61;97675.13;5071604;28;20420;-50
2024/02/09 08:01:52;;;;;;;0.30;0.20;;;;;;;13.04;99.85;97681.97;5075489;28;20555;-50
2024/02/09 08:04:20;;;;;;;0.30;0.20;;;;;;;12.94;99.42;97679.16;5075587;28;20444;-50
2024/02/09 08:06:50;;;;;;;0.30;0.20;;;;;;;13.02;99.04;97686.56;5059056;28;20516;-50
2024/02/09 08:09:16;;;;;;;0.30;0.20;;;;;;;13.14;99.33;97668.69;5066155;28;20453;-50
2024/02/09 08:11:45;;;;;;;0.30;0.20;;;;;;;13.04;99.15;97665.97;5071574;28;20529;-50
2024/02/09 08:14:11;;;;;;;0.30;0.20;;;;;;;12.89;99.44;97670.72;5066651;28;20470;-50
2024/02/09 08:16:38;;;;;;;0.30;0.20;;;;;;;13.15;99.28;97665.91;5075459;28;20435;-50
2024/02/09 08:19:09;;;;;;;0.30;0.20;;;;;;;13.10;99.24;97660.13;5075443;28;20515;-50
2024/02/09 08:21:39;;;;;;;0.30;0.20;;;;;;;13.23;99.03;97666.19;5061494;28;20488;-50
2024/02/09 08:24:10;;;;;;;0.30;0.20;;;;;;;13.32;98.14;97668.09;5073691;28;20470;-50
2024/02/09 08:26:37;;;;;;;0.40;0.40;;;;;;;13.34;97.85;97657.31;5075001;28;20446;-51
2024/02/09 08:29:18;;;;;;;0.30;0.20;;;;;;;13.27;98.08;97658.75;5075295;28;20922;-50
2024/02/09 08:31:45;;;;;;;0.30;0.20;;;;;;;13.28;97.77;97663.13;5075399;28;20881;-50
2024/02/09 08:34:12;;;;;;;0.30;0.20;;;;;;;13.49;97.55;97657.84;5074630;28;20444;-50
2024/02/09 08:36:39;;;;;;;0.30;0.20;;;;;;;13.47;97.71;97655.31;5075044;28;20522;-50
2024/02/09 08:39:06;;;;;;;0.30;0.20;;;;;;;13.60;96.86;97666.69;5074675;28;20980;-50
2024/02/09 08:41:33;;;;;;;0.30;0.20;;;;;;;13.41;97.20;97669.16;5061949;28;20519;-50
2024/02/09 08:44:00;;;;;;;0.30;0.20;;;;;;;13.41;96.52;97673.63;5070930;28;20991;-50
2024/02/09 08:46:27;;;;;;;0.30;0.20;;;;;;;13.52;97.31;97669.13;5074829;28;20424;-50
2024/02/09 08:48:56;;;;;;;0.30;0.20;;;;;;;13.57;97.38;97676.75;5074541;28;20537;-50
2024/02/09 08:51:22;;;;;;;0.30;0.20;;;;;;;13.46;96.75;97671.47;5074678;28;20446;-50
2024/02/09 08:56:23;;;;;;;0.30;0.20;;;;;;;13.54;96.48;97679.66;5025267;28;20475;-51
2024/02/09 08:58:49;;;;;;;0.30;0.20;;;;;;;13.50;96.52;97689.75;5034330;28;20455;-50
2024/02/09 09:01:16;;;;;;;0.30;0.20;;;;;;;13.85;95.79;97681.50;5034267;28;20430;-51
2024/02/09 09:03:43;;;;;;;0.30;0.20;;;;;;;13.74;95.95;97678.03;5034731;28;20456;-52
2024/02/09 09:06:10;;;;;;;0.30;0.20;;;;;;;13.53;95.93;97680.63;5034397;28;20499;-50
2024/02/09 09:08:37;;;;;;;0.30;0.20;;;;;;;13.54;95.98;97660.97;5034472;28;20458;-50
2024/02/09 09:11:05;;;;;;;0.30;0.20;;;;;;;13.57;95.94;97669.59;5033597;28;20801;-51
2024/02/09 09:13:31;;;;;;;0.30;0.20;;;;;;;13.58;95.80;97660.63;5034111;28;20470;-50
2024/02/09 09:15:58;;;;;;;0.30;0.20;;;;;;;13.76;95.44;97655.56;5034171;28;20471;-50
2024/02/09 09:18:24;;;;;;;0.30;0.20;;;;;;;13.89;95.05;97648.22;5034232;28;20456;-50
2024/02/09 09:20:53;;;;;;;0.30;0.20;;;;;;;13.89;95.31;97653.56;5034275;28;20459;-50
2024/02/09 09:23:20;;;;;;;0.30;0.20;;;;;;;14.13;94.52;97647.09;5033954;28;21136;-51
2024/02/09 09:25:46;;;;;;;0.30;0.20;;;;;;;13.90;94.83;97649.91;5031742;28;20478;-51
2024/02/09 09:28:14;;;;;;;0.30;0.20;;;;;;;13.73;96.33;97639.81;5033779;28;20506;-51
2024/02/09 09:30:40;;;;;;;0.30;0.20;;;;;;;14.02;95.08;97647.19;5034072;28;20448;-52
2024/02/09 09:33:07;;;;;;;0.70;0.70;;;;;;;13.98;94.12;97638.59;5034195;28;20455;-51
2024/02/09 09:35:34;;;;;;;0.30;0.20;;;;;;;13.93;94.39;97635.44;5033818;28;20457;-51
2024/02/09 09:38:00;;;;;;;0.30;0.20;;;;;;;14.16;94.08;97647.69;5031054;28;20448;-50
2024/02/09 09:40:35;;;;;;;0.30;0.20;;;;;;;14.27;93.70;97646.78;5029803;28;20449;-52
2024/02/09 09:43:01;;;;;;;0.30;0.20;;;;;;;14.35;93.40;97641.59;5021485;28;20834;-51
2024/02/09 09:45:29;;;;;;;0.30;0.20;;;;;;;14.35;93.20;97644.28;5033770;28;20468;-51
2024/02/09 09:47:57;;;;;;;0.30;0.20;;;;;;;14.44;93.10;97648.00;5033901;28;20434;-50
2024/02/09 09:50:26;;;;;;;0.30;0.20;;;;;;;14.37;92.54;97647.66;5033602;28;20456;-51
2024/02/09 09:52:54;;;;;;;0.30;0.20;;;;;;;14.33;92.28;97640.03;5033343;28;20540;-51
2024/02/09 09:55:24;;;;;;;0.33;0.20;;;;;;;14.37;92.10;97644.13;5023892;28;20495;-51
2024/02/09 09:57:52;;;;;;;0.30;0.20;;;;;;;14.56;91.92;97640.75;5033610;28;20422;-50
2024/02/09 10:00:20;;;;;;;0.30;0.20;;;;;;;14.59;91.58;97644.00;5033414;28;20486;-50
2024/02/09 10:02:49;;;;;;;0.30;0.20;;;;;;;14.69;91.76;97647.56;5033392;28;20469;-51
2024/02/09 10:05:16;;;;;;;0.30;0.20;;;;;;;14.69;91.09;97642.22;5033473;28;20553;-51
2024/02/09 10:07:46;;;;;;;0.30;0.20;;;;;;;14.63;91.66;97637.41;5033158;28;20827;-51
2024/02/09 10:10:13;;;;;;;0.30;0.20;;;;;;;14.49;91.49;97637.75;5033009;28;20971;-51
2024/02/09 10:12:40;;;;;;;0.30;0.20;;;;;;;14.62;90.77;97649.06;5033317;28;20426;-51
2024/02/09 10:15:07;;;;;;;1.90;1.80;;;;;;;14.41;92.02;97633.06;5032549;28;21026;-52
2024/02/09 10:17:36;;;;;;;0.30;0.20;;;;;;;14.52;91.77;97643.69;5032898;28;20773;-51
2024/02/09 10:20:04;;;;;;;0.30;0.20;;;;;;;14.47;91.58;97643.25;5032910;28;20919;-52
2024/02/09 10:22:31;;;;;;;0.30;0.30;;;;;;;14.34;92.69;97641.72;5031778;28;20505;-51
2024/02/09 10:24:57;;;;;;;0.40;0.37;;;;;;;14.61;92.73;97641.19;5031289;28;20450;-52
2024/02/09 10:27:24;;;;;;;0.30;0.20;;;;;;;14.67;92.26;97641.50;5032944;28;20435;-51
2024/02/09 10:29:51;;;;;;;0.30;0.20;;;;;;;14.75;91.46;97641.66;5032820;28;20955;-51
2024/02/09 10:32:18;;;;;;;0.30;0.20;;;;;;;14.94;91.53;97642.69;5015009;28;20460;-52
2024/02/09 10:34:48;;;;;;;0.30;0.20;;;;;;;15.03;90.37;97650.75;5032611;28;20476;-50
2024/02/09 10:37:16;;;;;;;0.30;0.30;;;;;;;15.14;90.74;97643.63;5030422;28;20551;-50
2024/02/09 10:39:56;;;;;;;0.30;0.20;;;;;;;15.14;89.89;97655.16;5032866;28;20537;-52
2024/02/09 10:42:24;;;;;;;0.30;0.20;;;;;;;15.14;89.67;97646.28;5015626;28;20466;-51
2024/02/09 10:44:55;;;;;;;0.30;0.20;;;;;;;15.22;89.09;97649.97;5032637;28;20468;-50
2024/02/09 10:47:37;;;;;;;0.30;0.20;;;;;;;15.09;89.09;97647.56;5032345;28;20813;-50
2024/02/09 10:50:06;;;;;;;0.30;0.20;;;;;;;15.29;89.40;97640.41;5032701;28;20885;-52
2024/02/09 10:52:54;;;;;;;0.40;0.40;;;;;;;15.58;88.33;97637.75;5032194;28;20943;-51
2024/02/09 10:55:23;;;;;;;0.30;0.20;;;;;;;15.66;87.71;97643.28;5023002;28;20574;-50
2024/02/09 10:57:50;;;;;;;0.30;0.20;;;;;;;15.79;87.28;97634.97;5032239;28;20430;-51
2024/02/09 11:00:17;;;;;;;0.30;0.20;;;;;;;15.85;86.05;97636.22;5032150;28;21003;-51
2024/02/09 11:02:44;;;;;;;0.30;0.20;;;;;;;15.59;86.66;97641.28;5032422;28;20472;-50
2024/02/09 11:05:14;;;;;;;0.30;0.20;;;;;;;15.55;85.85;97629.16;5032803;28;20488;-51
2024/02/09 11:07:43;;;;;;;0.30;0.20;;;;;;;15.71;84.98;97629.47;5032083;28;20443;-51
2024/02/09 11:10:14;;;;;;;0.30;0.20;;;;;;;15.59;85.63;97626.09;5032090;28;20874;-51
2024/02/09 11:12:41;;;;;;;0.30;0.20;;;;;;;15.81;85.99;97611.56;5014369;28;20471;-51
2024/02/09 11:15:14;;;;;;;0.30;0.20;;;;;;;15.70;86.04;97620.59;5032089;28;20590;-51
2024/02/09 11:17:48;;;;;;;0.30;0.20;;;;;;;15.67;85.93;97612.84;5031911;28;20990;-51
2024/02/09 11:20:14;;;;;;;0.30;0.20;;;;;;;15.98;85.17;97612.66;5031979;28;20448;-50
2024/02/09 11:22:50;;;;;;;0.30;0.20;;;;;;;15.94;84.72;97612.13;5031531;28;20585;-50
2024/02/09 11:25:19;;;;;;;0.30;0.20;;;;;;;15.87;84.61;97608.31;5011702;28;20466;-51
2024/02/09 11:27:47;;;;;;;0.30;0.20;;;;;;;15.75;83.43;97612.13;5031788;28;20427;-51
2024/02/09 11:30:14;;;;;;;0.30;0.20;;;;;;;15.86;84.01;97598.56;5032242;28;20510;-52
2024/02/09 11:32:40;;;;;;;0.30;0.20;;;;;;;15.78;84.47;97600.31;5031493;28;20921;-51
2024/02/09 11:35:07;;;;;;;0.30;0.20;;;;;;;15.75;83.97;97597.88;5031552;28;20869;-51
2024/02/09 11:37:35;;;;;;;0.30;0.20;;;;;;;15.65;84.31;97596.06;5028188;28;20509;-51
2024/02/09 11:40:03;;;;;;;0.30;0.20;;;;;;;15.69;83.93;97597.47;5031304;28;20463;-50
2024/02/09 11:42:29;;;;;;;0.30;0.20;;;;;;;15.64;84.80;97605.09;5015328;28;20480;-51
2024/02/09 11:45:02;;;;;;;0.30;0.20;;;;;;;15.56;84.99;97591.53;5031374;28;20804;-51
2024/02/09 11:47:31;;;;;;;0.30;0.20;;;;;;;15.57;84.44;97590.53;5031424;28;20897;-51
2024/02/09 11:49:58;;;;;;;0.30;0.20;;;;;;;15.59;84.25;97595.75;5031610;28;20459;-52
2024/02/09 11:52:24;;;;;;;0.30;0.20;;;;;;;15.46;85.09;97592.50;5031157;28;20447;-51
2024/02/09 11:54:50;;;;;;;0.30;0.20;;;;;;;15.39;85.30;97587.72;5023430;28;21036;-51
2024/02/09 11:57:18;;;;;;;0.30;0.20;;;;;;;15.46;85.05;97595.19;5030495;28;20466;-51
2024/02/09 11:59:45;;;;;;;0.30;0.20;;;;;;;15.32;85.87;97577.72;5031645;28;20447;-51
2024/02/09 12:02:14;;;;;;;0.30;0.20;;;;;;;15.25;85.36;97593.50;5031245;28;20562;-51
2024/02/09 12:04:40;;;;;;;0.30;0.20;;;;;;;15.26;85.57;97599.69;5031114;28;20478;-50
2024/02/09 12:07:07;;;;;;;0.30;0.20;;;;;;;15.32;87.43;97601.81;5031210;28;20506;-52
2024/02/09 12:09:34;;;;;;;0.30;0.20;;;;;;;15.01;90.35;97607.25;5031438;28;20513;-51
2024/02/09 12:12:00;;;;;;;0.30;0.20;;;;;;;14.91;91.78;97608.22;5031248;28;20513;-50
2024/02/09 12:14:27;;;;;;;0.30;0.20;;;;;;;14.61;93.83;97609.09;5031351;28;20450;-51
2024/02/09 12:16:56;;;;;;;0.30;0.20;;;;;;;14.55;94.84;97607.00;5018237;28;20795;-51
2024/02/09 12:19:22;;;;;;;0.30;0.20;;;;;;;14.55;95.80;97597.13;5031325;28;20451;-51
2024/02/09 12:21:51;;;;;;;0.30;0.20;;;;;;;14.55;95.75;97590.94;5031341;28;20487;-51
2024/02/09 12:24:17;;;;;;;0.30;0.20;;;;;;;14.52;97.06;97592.88;5028543;28;20474;-51
2024/02/09 12:26:44;;;;;;;0.30;0.20;;;;;;;14.50;98.29;97592.19;5031256;28;20511;-52
2024/02/09 12:29:12;;;;;;;0.30;0.20;;;;;;;14.38;97.21;97585.19;5031080;28;20510;-50
2024/02/09 12:31:46;;;;;;;0.30;0.20;;;;;;;14.94;97.64;97584.72;5030943;28;20543;-50
2024/02/09 12:34:14;;;;;;;0.30;0.20;;;;;;;14.82;97.60;97572.47;5031271;28;20445;-51
2024/02/09 12:36:59;;;;;;;0.30;0.20;;;;;;;15.15;96.69;97578.41;5031278;28;20486;-49
2024/02/09 12:39:25;;;;;;;0.30;0.20;;;;;;;14.94;97.01;97576.72;5013727;28;20457;-50
2024/02/09 12:42:02;;;;;;;0.30;0.20;;;;;;;15.03;96.79;97586.56;5014463;28;20429;-51
2024/02/09 12:44:30;;;;;;;0.30;0.20;;;;;;;14.82;96.38;97577.81;5004567;28;20502;-52
2024/02/09 12:47:02;;;;;;;0.30;0.20;;;;;;;14.76;97.42;97584.53;5033200;28;20422;-51
2024/02/09 12:49:30;;;;;;;0.30;0.20;;;;;;;14.69;97.80;97580.72;5034961;28;20428;-50
2024/02/09 12:51:58;;;;;;;0.30;0.20;;;;;;;14.84;98.97;97591.88;5034495;28;20431;-49
2024/02/09 12:54:25;;;;;;;0.30;0.20;;;;;;;15.25;97.90;97587.31;5030114;28;20472;-49
2024/02/09 12:56:51;;;;;;;0.30;0.20;;;;;;;15.01;97.44;97585.00;5030159;28;20444;-51
2024/02/09 12:59:18;;;;;;;0.30;0.20;;;;;;;15.22;96.50;97587.59;5034486;28;21110;-51
2024/02/09 13:01:44;;;;;;;0.30;0.20;;;;;;;14.85;97.04;97588.22;5034595;28;20455;-50
2024/02/09 13:04:11;;;;;;;0.30;0.20;;;;;;;14.99;96.08;97592.34;5034344;28;20470;-50
2024/02/09 13:06:38;;;;;;;0.30;0.20;;;;;;;15.14;95.77;97592.78;5034048;28;20430;-51
2024/02/09 13:09:05;;;;;;;0.30;0.20;;;;;;;15.30;96.51;97585.88;5034617;28;20422;-50
2024/02/09 13:11:32;;;;;;;0.30;0.20;;;;;;;15.18;95.72;97588.81;5034967;28;20447;-50
2024/02/09 13:13:59;;;;;;;0.30;0.20;;;;;;;15.41;95.48;97585.75;5034851;28;20885;-50
2024/02/09 13:16:26;;;;;;;0.30;0.20;;;;;;;15.42;93.91;97575.88;5034346;28;20498;-50
2024/02/09 13:18:52;;;;;;;0.30;0.20;;;;;;;15.28;94.53;97581.66;5034481;28;20949;-50
2024/02/09 13:21:20;;;;;;;0.30;0.20;;;;;;;15.25;94.22;97577.44;5034244;28;20433;-50
2024/02/09 13:23:47;;;;;;;0.30;0.20;;;;;;;15.34;94.41;97571.22;5033967;28;20564;-50